Time;durP1;ratioP1;P1;durP2;ratioP2;P2;SDS_P1;SDS_P2;PMS_P1;PMS_P2;Temp;Humidity;BMP_temperature;BMP_pressure;BME280_temperature;BME280_humidity;BME280_pressure;Samples;Min_cycle;Max_cycle;Signal;HPM_P1;HPM_P2
2023/12/17 00:00:46;;;;;;;;;;;9.80;99.90;;;;;;5031849;28;20015;-34
2023/12/17 00:03:13;;;;;;;;;;;9.80;99.90;;;;;;5051298;28;20008;-35
2023/12/17 00:05:40;;;;;;;;;;;9.80;99.90;;;;;;5030976;28;19996;-34
2023/12/17 00:08:06;;;;;;;;;;;9.80;99.90;;;;;;5030332;28;19969;-36
2023/12/17 00:10:34;;;;;;;;;;;9.80;99.90;;;;;;5031266;28;20391;-35
2023/12/17 00:13:01;;;;;;;;;;;9.80;99.90;;;;;;5061472;28;19994;-35
2023/12/17 00:15:27;;;;;;;;;;;9.80;99.90;;;;;;5050241;28;19937;-34
2023/12/17 00:17:54;;;;;;;;;;;9.80;99.90;;;;;;5036219;28;19946;-35
2023/12/17 00:20:21;;;;;;;;;;;9.80;99.90;;;;;;5035762;28;20298;-36
2023/12/17 00:22:47;;;;;;;;;;;9.80;99.90;;;;;;5035594;28;19938;-35
2023/12/17 00:25:14;;;;;;;;;;;9.80;99.90;;;;;;5051186;28;19944;-34
2023/12/17 00:27:42;;;;;;;;;;;9.80;99.90;;;;;;5071918;28;19954;-36
2023/12/17 00:30:09;;;;;;;;;;;9.80;99.90;;;;;;5064288;28;20371;-35
2023/12/17 00:32:36;;;;;;;;;;;9.80;99.90;;;;;;5058766;28;20401;-37
2023/12/17 00:35:03;;;;;;;;;;;9.70;99.90;;;;;;5044906;28;20389;-35
2023/12/17 00:37:30;;;;;;;;;;;9.80;99.90;;;;;;5035061;28;19938;-35
2023/12/17 00:39:56;;;;;;;;;;;9.70;99.90;;;;;;5034591;28;20047;-35
2023/12/17 00:42:23;;;;;;;;;;;9.80;99.90;;;;;;5040388;28;19987;-34
2023/12/17 00:44:51;;;;;;;;;;;9.70;99.90;;;;;;5034260;28;19997;-36
2023/12/17 00:47:17;;;;;;;;;;;9.70;99.90;;;;;;5055255;28;19998;-37
2023/12/17 00:49:44;;;;;;;;;;;9.70;99.90;;;;;;5046624;28;20448;-35
2023/12/17 00:52:11;;;;;;;;;;;9.80;99.90;;;;;;5049836;28;19935;-36
2023/12/17 00:54:37;;;;;;;;;;;9.70;99.90;;;;;;5052338;28;19932;-35
2023/12/17 00:57:04;;;;;;;;;;;9.70;99.90;;;;;;5054407;28;19997;-35
2023/12/17 00:59:31;;;;;;;;;;;9.70;99.90;;;;;;5054379;28;19942;-35
2023/12/17 01:01:58;;;;;;;;;;;9.70;99.90;;;;;;5053068;28;19994;-35
2023/12/17 01:04:25;;;;;;;;;;;9.70;99.90;;;;;;5048018;28;20022;-35
2023/12/17 01:06:52;;;;;;;;;;;9.80;99.90;;;;;;5033981;28;20300;-36
2023/12/17 01:09:18;;;;;;;;;;;9.80;99.90;;;;;;5033966;28;20018;-35
2023/12/17 01:11:45;;;;;;;;;;;9.70;99.90;;;;;;5045442;28;19998;-34
2023/12/17 01:14:12;;;;;;;;;;;9.70;99.90;;;;;;5052598;28;19946;-35
2023/12/17 01:16:38;;;;;;;;;;;9.80;99.90;;;;;;5052387;28;19945;-34
2023/12/17 01:19:06;;;;;;;;;;;9.80;99.90;;;;;;5034191;28;19944;-34
2023/12/17 01:21:33;;;;;;;;;;;9.70;99.90;;;;;;5062513;28;20375;-34
2023/12/17 01:23:59;;;;;;;;;;;9.80;99.90;;;;;;5035947;28;19945;-33
2023/12/17 01:26:27;;;;;;;;;;;9.70;99.90;;;;;;5032789;28;19937;-36
2023/12/17 01:28:53;;;;;;;;;;;9.80;99.90;;;;;;5048990;28;19984;-35
2023/12/17 01:31:20;;;;;;;;;;;9.80;99.90;;;;;;5044902;28;19943;-36
2023/12/17 01:33:46;;;;;;;;;;;9.80;99.90;;;;;;5042533;28;20707;-35
2023/12/17 01:36:14;;;;;;;;;;;9.80;99.90;;;;;;5052404;28;19989;-35
2023/12/17 01:38:41;;;;;;;;;;;9.80;99.90;;;;;;5051784;28;20040;-38
2023/12/17 01:41:08;;;;;;;;;;;9.80;99.90;;;;;;5038765;28;19950;-35
2023/12/17 01:43:34;;;;;;;;;;;9.80;99.90;;;;;;5032869;28;19925;-35
2023/12/17 01:46:01;;;;;;;;;;;9.80;99.90;;;;;;5062053;28;19945;-36
2023/12/17 01:48:27;;;;;;;;;;;9.80;99.90;;;;;;5045074;28;20434;-35
2023/12/17 01:50:54;;;;;;;;;;;9.80;99.90;;;;;;5045465;28;19994;-35
2023/12/17 01:53:22;;;;;;;;;;;9.80;99.90;;;;;;5053339;28;19937;-35
2023/12/17 01:55:49;;;;;;;;;;;9.80;99.90;;;;;;5052792;28;20001;-34
2023/12/17 01:58:16;;;;;;;;;;;9.80;99.90;;;;;;5052316;28;19993;-35
2023/12/17 02:00:42;;;;;;;;;;;9.80;99.90;;;;;;5052324;28;19981;-36
2023/12/17 02:03:09;;;;;;;;;;;9.80;99.90;;;;;;5051821;28;19966;-36
2023/12/17 02:05:36;;;;;;;;;;;9.80;99.90;;;;;;5059282;28;20316;-34
2023/12/17 02:08:02;;;;;;;;;;;9.80;99.90;;;;;;5061769;28;20355;-35
2023/12/17 02:10:30;;;;;;;;;;;9.80;99.90;;;;;;5050590;28;20312;-35
2023/12/17 02:12:58;;;;;;;;;;;9.80;99.90;;;;;;5053841;28;20401;-35
2023/12/17 02:15:25;;;;;;;;;;;9.80;99.90;;;;;;5051923;28;20380;-35
2023/12/17 02:17:51;;;;;;;;;;;9.90;99.90;;;;;;5058486;28;19993;-36
2023/12/17 02:20:18;;;;;;;;;;;9.80;99.90;;;;;;5042276;28;19949;-36
2023/12/17 02:22:45;;;;;;;;;;;9.80;99.90;;;;;;5031217;28;19951;-35
2023/12/17 02:25:13;;;;;;;;;;;9.80;99.90;;;;;;5031656;28;20377;-35
2023/12/17 02:27:39;;;;;;;;;;;9.80;99.90;;;;;;5048369;28;19945;-35
2023/12/17 02:30:07;;;;;;;;;;;9.80;99.90;;;;;;5066264;28;19944;-35
2023/12/17 02:32:33;;;;;;;;;;;9.80;99.90;;;;;;5052344;28;19986;-34
2023/12/17 02:35:00;;;;;;;;;;;9.90;99.90;;;;;;5049569;28;19937;-34
2023/12/17 02:37:26;;;;;;;;;;;9.80;99.90;;;;;;5052341;28;20362;-35
2023/12/17 02:39:53;;;;;;;;;;;9.80;99.90;;;;;;5049951;28;19945;-34
2023/12/17 02:42:21;;;;;;;;;;;9.80;99.90;;;;;;5031591;28;19946;-35
2023/12/17 02:44:48;;;;;;;;;;;9.80;99.90;;;;;;5033822;28;19950;-35
2023/12/17 02:47:15;;;;;;;;;;;9.80;99.90;;;;;;5037047;28;20002;-36
2023/12/17 02:49:41;;;;;;;;;;;9.80;99.90;;;;;;5030975;28;19964;-34
2023/12/17 02:52:08;;;;;;;;;;;9.90;99.90;;;;;;5047812;28;20382;-36
2023/12/17 02:54:35;;;;;;;;;;;9.80;99.90;;;;;;5039068;28;19941;-36
2023/12/17 02:57:02;;;;;;;;;;;9.90;99.90;;;;;;5050457;28;19941;-34
2023/12/17 02:59:30;;;;;;;;;;;9.90;99.90;;;;;;5031365;28;19944;-36
2023/12/17 03:01:56;;;;;;;;;;;9.90;99.90;;;;;;5031367;28;19943;-34
2023/12/17 03:04:23;;;;;;;;;;;9.90;99.90;;;;;;5069542;28;19961;-36
2023/12/17 03:06:50;;;;;;;;;;;9.90;99.90;;;;;;5035854;28;19949;-36
2023/12/17 03:09:16;;;;;;;;;;;9.80;99.90;;;;;;5031604;28;20429;-34
2023/12/17 03:11:43;;;;;;;;;;;9.90;99.90;;;;;;5046755;28;20405;-35
2023/12/17 03:14:10;;;;;;;;;;;9.80;99.90;;;;;;5050525;28;19994;-35
2023/12/17 03:16:38;;;;;;;;;;;9.80;99.90;;;;;;5039723;28;19946;-36
2023/12/17 03:19:04;;;;;;;;;;;9.80;99.90;;;;;;5049881;28;20367;-37
2023/12/17 03:21:31;;;;;;;;;;;9.80;99.90;;;;;;5065912;28;19992;-36
2023/12/17 03:23:58;;;;;;;;;;;9.80;99.90;;;;;;5074507;28;19992;-34
2023/12/17 03:26:24;;;;;;;;;;;9.80;99.90;;;;;;5069654;28;19946;-35
2023/12/17 03:28:51;;;;;;;;;;;9.80;99.90;;;;;;5065851;28;20376;-35
2023/12/17 03:31:18;;;;;;;;;;;9.80;99.90;;;;;;5066573;28;19950;-35
2023/12/17 03:33:46;;;;;;;;;;;9.80;99.90;;;;;;5062821;28;19935;-33
2023/12/17 03:36:13;;;;;;;;;;;9.80;99.90;;;;;;5066576;28;19941;-34
2023/12/17 03:38:39;;;;;;;;;;;9.80;99.90;;;;;;5069223;28;19987;-36
2023/12/17 03:41:06;;;;;;;;;;;9.80;99.90;;;;;;5063636;28;20382;-34
2023/12/17 03:43:33;;;;;;;;;;;9.80;99.90;;;;;;5062493;28;19942;-36
2023/12/17 03:45:59;;;;;;;;;;;9.80;99.90;;;;;;5068812;28;19979;-36
2023/12/17 03:48:26;;;;;;;;;;;9.80;99.90;;;;;;5070810;28;20052;-36
2023/12/17 03:50:54;;;;;;;;;;;9.80;99.90;;;;;;5071315;28;19987;-34
2023/12/17 03:53:20;;;;;;;;;;;9.80;99.90;;;;;;5069566;28;20000;-35
2023/12/17 03:55:47;;;;;;;;;;;9.80;99.90;;;;;;5072810;28;19990;-35
2023/12/17 03:58:14;;;;;;;;;;;9.70;99.90;;;;;;5064439;28;20037;-35
2023/12/17 04:00:40;;;;;;;;;;;9.70;99.90;;;;;;5068058;28;19992;-36
2023/12/17 04:03:07;;;;;;;;;;;9.80;99.90;;;;;;5073045;28;19983;-36
2023/12/17 04:05:33;;;;;;;;;;;9.70;99.90;;;;;;5066763;28;19988;-35
2023/12/17 04:08:01;;;;;;;;;;;9.70;99.90;;;;;;5073538;28;19943;-36
2023/12/17 04:10:28;;;;;;;;;;;9.70;99.90;;;;;;5070470;28;19971;-36
2023/12/17 04:12:55;;;;;;;;;;;9.70;99.90;;;;;;5070588;28;20338;-36
2023/12/17 04:15:21;;;;;;;;;;;9.80;99.90;;;;;;5069845;28;19942;-34
2023/12/17 04:17:49;;;;;;;;;;;9.70;99.90;;;;;;5068988;28;19989;-34
2023/12/17 04:20:15;;;;;;;;;;;9.70;99.90;;;;;;5068292;28;19947;-35
2023/12/17 04:22:42;;;;;;;;;;;9.70;99.90;;;;;;5063917;28;19939;-36
2023/12/17 04:25:10;;;;;;;;;;;9.70;99.90;;;;;;5068051;28;20384;-35
2023/12/17 04:27:36;;;;;;;;;;;9.70;99.90;;;;;;5057578;28;19942;-35
2023/12/17 04:30:03;;;;;;;;;;;9.70;99.90;;;;;;5069760;28;20459;-35
2023/12/17 04:32:30;;;;;;;;;;;9.70;99.90;;;;;;5063610;28;19985;-35
2023/12/17 04:34:57;;;;;;;;;;;9.70;99.90;;;;;;5071741;28;19940;-36
2023/12/17 04:37:23;;;;;;;;;;;9.70;99.90;;;;;;5065310;28;20332;-35
2023/12/17 04:39:50;;;;;;;;;;;9.70;99.90;;;;;;5062161;28;19970;-36
2023/12/17 04:42:18;;;;;;;;;;;9.70;99.90;;;;;;5068237;28;19989;-35
2023/12/17 04:44:45;;;;;;;;;;;9.70;99.90;;;;;;5068829;28;19939;-34
2023/12/17 04:47:11;;;;;;;;;;;9.70;99.90;;;;;;5068861;28;19940;-36
2023/12/17 04:49:38;;;;;;;;;;;9.70;99.90;;;;;;5063801;28;20341;-35
2023/12/17 04:52:05;;;;;;;;;;;9.60;99.90;;;;;;5050257;28;20382;-35
2023/12/17 04:54:32;;;;;;;;;;;9.70;99.90;;;;;;5034137;28;19944;-36
2023/12/17 04:56:58;;;;;;;;;;;9.70;99.90;;;;;;5033547;28;19997;-37
2023/12/17 04:59:26;;;;;;;;;;;9.70;99.90;;;;;;5034835;28;20282;-34
2023/12/17 05:01:53;;;;;;;;;;;9.60;99.90;;;;;;5045006;28;20300;-35
2023/12/17 05:04:19;;;;;;;;;;;9.60;99.90;;;;;;5033358;28;20035;-35
2023/12/17 05:06:46;;;;;;;;;;;9.60;99.90;;;;;;5042361;28;19997;-35
2023/12/17 05:09:13;;;;;;;;;;;9.70;99.90;;;;;;5040554;28;19963;-34
2023/12/17 05:11:39;;;;;;;;;;;9.60;99.90;;;;;;5046671;28;19997;-35
2023/12/17 05:14:06;;;;;;;;;;;9.70;99.90;;;;;;5048057;28;19981;-35
2023/12/17 05:16:34;;;;;;;;;;;9.70;99.90;;;;;;5056351;28;19941;-35
2023/12/17 05:19:01;;;;;;;;;;;9.70;99.90;;;;;;5052897;28;19988;-35
2023/12/17 05:21:28;;;;;;;;;;;9.60;99.90;;;;;;5051868;28;19961;-35
2023/12/17 05:23:54;;;;;;;;;;;9.70;99.90;;;;;;5053886;28;20419;-35
2023/12/17 05:26:21;;;;;;;;;;;9.70;99.90;;;;;;5056742;28;19943;-37
2023/12/17 05:28:48;;;;;;;;;;;9.60;99.90;;;;;;5071844;28;19967;-35
2023/12/17 05:31:15;;;;;;;;;;;9.60;99.90;;;;;;5064865;28;19991;-35
2023/12/17 05:33:46;;;;;;;;;;;9.60;99.90;;;;;;5066131;28;19940;-35
2023/12/17 05:36:12;;;;;;;;;;;9.60;99.90;;;;;;5060225;28;19976;-36
2023/12/17 05:38:39;;;;;;;;;;;9.60;99.90;;;;;;5053655;28;19992;-35
2023/12/17 05:41:06;;;;;;;;;;;9.60;99.90;;;;;;5064305;28;19939;-36
2023/12/17 05:43:33;;;;;;;;;;;9.60;99.90;;;;;;5058559;28;19944;-35
2023/12/17 05:45:59;;;;;;;;;;;9.60;99.90;;;;;;5053763;28;20370;-36
2023/12/17 05:48:26;;;;;;;;;;;9.60;99.90;;;;;;5072315;28;20029;-37
2023/12/17 05:50:54;;;;;;;;;;;9.60;99.90;;;;;;5057066;28;19943;-36
2023/12/17 05:53:20;;;;;;;;;;;9.60;99.90;;;;;;5053168;28;19996;-35
2023/12/17 05:55:47;;;;;;;;;;;9.50;99.90;;;;;;5053383;28;20428;-37
2023/12/17 05:58:13;;;;;;;;;;;9.60;99.90;;;;;;5052220;28;19940;-37
2023/12/17 06:00:40;;;;;;;;;;;9.60;99.90;;;;;;5050190;28;19938;-35
2023/12/17 06:03:07;;;;;;;;;;;9.50;99.90;;;;;;5051614;28;19942;-37
2023/12/17 06:05:34;;;;;;;;;;;9.50;99.90;;;;;;5066096;28;19941;-35
2023/12/17 06:08:02;;;;;;;;;;;9.50;99.90;;;;;;5065975;28;19939;-36
2023/12/17 06:10:28;;;;;;;;;;;9.60;99.90;;;;;;5052699;28;20023;-35
2023/12/17 06:12:55;;;;;;;;;;;9.40;99.90;;;;;;5065274;28;19940;-35
2023/12/17 06:15:21;;;;;;;;;;;9.40;99.90;;;;;;5070317;28;20478;-34
2023/12/17 06:17:48;;;;;;;;;;;9.50;99.90;;;;;;5056943;28;19937;-37
2023/12/17 06:20:15;;;;;;;;;;;9.40;99.90;;;;;;5055953;28;19941;-35
2023/12/17 06:22:42;;;;;;;;;;;9.40;99.90;;;;;;5068608;28;19945;-37
2023/12/17 06:25:10;;;;;;;;;;;9.40;99.90;;;;;;5054815;28;19942;-36
2023/12/17 06:27:36;;;;;;;;;;;9.40;99.90;;;;;;5066055;28;20343;-36
2023/12/17 06:30:03;;;;;;;;;;;9.40;99.90;;;;;;5063914;28;19988;-35
2023/12/17 06:32:30;;;;;;;;;;;9.40;99.90;;;;;;5061994;28;19937;-34
2023/12/17 06:34:56;;;;;;;;;;;9.40;99.90;;;;;;5055940;28;19941;-39
2023/12/17 06:37:23;;;;;;;;;;;9.40;99.90;;;;;;5065465;28;19996;-38
2023/12/17 06:39:50;;;;;;;;;;;9.30;99.90;;;;;;5070067;28;19945;-37
2023/12/17 06:42:18;;;;;;;;;;;9.40;99.90;;;;;;5059606;28;20432;-35
2023/12/17 06:44:44;;;;;;;;;;;9.40;99.90;;;;;;5068758;28;19937;-35
2023/12/17 06:47:12;;;;;;;;;;;9.30;99.90;;;;;;5069262;28;19940;-34
2023/12/17 06:49:38;;;;;;;;;;;9.40;99.90;;;;;;5068945;28;19963;-34
2023/12/17 06:52:05;;;;;;;;;;;9.30;99.90;;;;;;5044221;28;19987;-38
2023/12/17 06:54:32;;;;;;;;;;;9.40;99.90;;;;;;5058535;28;20037;-37
2023/12/17 06:56:58;;;;;;;;;;;9.40;99.90;;;;;;5059347;28;19988;-38
2023/12/17 06:59:26;;;;;;;;;;;9.40;99.90;;;;;;5058590;28;19990;-39
2023/12/17 07:01:53;;;;;;;;;;;9.30;99.90;;;;;;5057434;28;19941;-36
2023/12/17 07:04:20;;;;;;;;;;;9.30;99.90;;;;;;5068227;28;19961;-36
2023/12/17 07:06:46;;;;;;;;;;;9.30;99.90;;;;;;5061301;28;20306;-36
2023/12/17 07:09:13;;;;;;;;;;;9.30;99.90;;;;;;5053390;28;20433;-38
2023/12/17 07:11:43;;;;;;;;;;;9.30;99.90;;;;;;5069846;28;20450;-34
2023/12/17 07:14:09;;;;;;;;;;;9.30;99.90;;;;;;5068996;28;19949;-35
2023/12/17 07:16:38;;;;;;;;;;;9.30;99.90;;;;;;5067000;28;19935;-35
2023/12/17 07:19:04;;;;;;;;;;;9.30;99.90;;;;;;5057287;28;20294;-37
2023/12/17 07:21:31;;;;;;;;;;;9.30;99.90;;;;;;5055291;28;20523;-41
2023/12/17 07:23:57;;;;;;;;;;;9.30;99.90;;;;;;5068380;28;20905;-35
2023/12/17 07:26:25;;;;;;;;;;;9.30;99.90;;;;;;5072269;28;19950;-36
2023/12/17 07:28:51;;;;;;;;;;;9.30;99.90;;;;;;5068967;28;19947;-36
2023/12/17 07:31:18;;;;;;;;;;;9.30;99.90;;;;;;5056699;28;20397;-34
2023/12/17 07:33:46;;;;;;;;;;;9.30;99.90;;;;;;5059407;28;19976;-35
2023/12/17 07:36:12;;;;;;;;;;;9.30;99.90;;;;;;5068969;28;19980;-35
2023/12/17 07:38:39;;;;;;;;;;;9.30;99.90;;;;;;5051850;28;19942;-36
2023/12/17 07:41:06;;;;;;;;;;;9.30;99.90;;;;;;5055180;28;19939;-36
2023/12/17 07:43:34;;;;;;;;;;;9.30;99.90;;;;;;5058782;28;19997;-35
2023/12/17 07:46:00;;;;;;;;;;;9.20;99.90;;;;;;5062661;28;20002;-36
2023/12/17 07:48:27;;;;;;;;;;;9.30;99.90;;;;;;5066355;28;19947;-37
2023/12/17 07:50:56;;;;;;;;;;;9.30;99.90;;;;;;5055568;28;20379;-35
2023/12/17 07:53:23;;;;;;;;;;;9.20;99.90;;;;;;5056442;28;20051;-35
2023/12/17 07:55:50;;;;;;;;;;;9.20;99.90;;;;;;5052768;28;19945;-35
2023/12/17 07:58:17;;;;;;;;;;;9.30;99.90;;;;;;5053036;28;19993;-35
2023/12/17 08:00:43;;;;;;;;;;;9.20;99.90;;;;;;5052608;28;19982;-35
2023/12/17 08:03:10;;;;;;;;;;;9.20;99.90;;;;;;5050791;28;19966;-36
2023/12/17 08:05:37;;;;;;;;;;;9.20;99.90;;;;;;5064688;28;19940;-38
2023/12/17 08:08:05;;;;;;;;;;;9.20;99.90;;;;;;5054901;28;19987;-37
2023/12/17 08:10:31;;;;;;;;;;;9.30;99.90;;;;;;5053090;28;20018;-37
2023/12/17 08:12:58;;;;;;;;;;;9.20;99.90;;;;;;5066754;28;20013;-37
2023/12/17 08:15:25;;;;;;;;;;;9.20;99.90;;;;;;5054493;28;20000;-35
2023/12/17 08:17:51;;;;;;;;;;;9.20;99.90;;;;;;5051788;28;19986;-35
2023/12/17 08:20:18;;;;;;;;;;;9.20;99.90;;;;;;5064908;28;19987;-36
2023/12/17 08:22:45;;;;;;;;;;;9.20;99.90;;;;;;5054122;28;20325;-35
2023/12/17 08:25:13;;;;;;;;;;;9.20;99.90;;;;;;5054305;28;19993;-35
2023/12/17 08:27:39;;;;;;;;;;;9.20;99.90;;;;;;5040306;28;20040;-35
2023/12/17 08:30:07;;;;;;;;;;;9.20;99.90;;;;;;5047005;28;20016;-34
2023/12/17 08:32:33;;;;;;;;;;;9.20;99.90;;;;;;5058276;28;19942;-34
2023/12/17 08:35:00;;;;;;;;;;;9.20;99.90;;;;;;5042226;28;19980;-34
2023/12/17 08:37:27;;;;;;;;;;;9.20;99.90;;;;;;5050184;28;20486;-36
2023/12/17 08:39:53;;;;;;;;;;;9.20;99.90;;;;;;5055415;28;20256;-36
2023/12/17 08:42:21;;;;;;;;;;;9.20;99.90;;;;;;5055539;28;20421;-36
2023/12/17 08:44:48;;;;;;;;;;;9.20;99.90;;;;;;5073801;28;20049;-35
2023/12/17 08:47:15;;;;;;;;;;;9.20;99.90;;;;;;5075178;28;19935;-34
2023/12/17 08:49:42;;;;;;;;;;;9.20;99.90;;;;;;5047332;28;20036;-35
2023/12/17 08:52:08;;;;;;;;;;;9.20;99.90;;;;;;5037519;28;20093;-37
2023/12/17 08:54:35;;;;;;;;;;;9.30;99.90;;;;;;5038579;28;20037;-34
2023/12/17 08:57:01;;;;;;;;;;;9.20;99.90;;;;;;5034325;28;19939;-37
2023/12/17 08:59:29;;;;;;;;;;;9.20;99.90;;;;;;5037099;28;19976;-35
2023/12/17 09:01:56;;;;;;;;;;;9.30;99.90;;;;;;5053067;28;19941;-37
2023/12/17 09:04:23;;;;;;;;;;;9.30;99.90;;;;;;5050862;28;19973;-36
2023/12/17 09:06:50;;;;;;;;;;;9.30;99.90;;;;;;5053493;28;19960;-36
2023/12/17 09:09:16;;;;;;;;;;;9.30;99.90;;;;;;5050771;28;19938;-35
2023/12/17 09:11:42;;;;;;;;;;;9.30;99.90;;;;;;5051978;28;20007;-35
2023/12/17 09:14:09;;;;;;;;;;;9.30;99.90;;;;;;5051590;28;19943;-35
2023/12/17 09:16:37;;;;;;;;;;;9.30;99.90;;;;;;5054644;28;19945;-35
2023/12/17 09:19:04;;;;;;;;;;;9.40;99.90;;;;;;5053076;28;20408;-36
2023/12/17 09:21:31;;;;;;;;;;;9.40;99.90;;;;;;5038050;28;20016;-36
2023/12/17 09:23:57;;;;;;;;;;;9.40;99.90;;;;;;5049520;28;19976;-36
2023/12/17 09:26:24;;;;;;;;;;;9.40;99.90;;;;;;5049579;28;19989;-37
2023/12/17 09:28:51;;;;;;;;;;;9.40;99.90;;;;;;5032759;28;20400;-36
2023/12/17 09:31:18;;;;;;;;;;;9.50;99.90;;;;;;5058035;28;20133;-36
2023/12/17 09:33:46;;;;;;;;;;;9.40;99.90;;;;;;5053389;28;19993;-38
2023/12/17 09:36:13;;;;;;;;;;;9.50;99.90;;;;;;5051093;28;19980;-35
2023/12/17 09:38:42;;;;;;;;;;;9.40;99.90;;;;;;5052141;28;19970;-36
2023/12/17 09:41:09;;;;;;;;;;;9.50;99.90;;;;;;5052552;28;19941;-37
2023/12/17 09:43:35;;;;;;;;;;;9.50;99.90;;;;;;5051225;28;19990;-36
2023/12/17 09:46:02;;;;;;;;;;;9.50;99.90;;;;;;5052693;28;19995;-35
2023/12/17 09:48:29;;;;;;;;;;;9.40;99.90;;;;;;5051098;28;19940;-35
2023/12/17 09:50:57;;;;;;;;;;;9.40;99.90;;;;;;5058864;28;19955;-36
2023/12/17 09:53:24;;;;;;;;;;;9.50;99.90;;;;;;5072640;28;20039;-35
2023/12/17 09:55:50;;;;;;;;;;;9.40;99.90;;;;;;5067615;28;20448;-35
2023/12/17 09:58:17;;;;;;;;;;;9.50;99.90;;;;;;5052475;28;19941;-34
2023/12/17 10:00:44;;;;;;;;;;;9.40;99.90;;;;;;5050160;28;19986;-36
2023/12/17 10:03:13;;;;;;;;;;;9.50;99.90;;;;;;5056828;28;20001;-37
2023/12/17 10:05:40;;;;;;;;;;;9.40;99.90;;;;;;5052356;28;20001;-35
2023/12/17 10:08:08;;;;;;;;;;;9.50;99.90;;;;;;5068559;28;19943;-36
2023/12/17 10:10:34;;;;;;;;;;;9.50;99.90;;;;;;5060576;28;19955;-34
2023/12/17 10:13:01;;;;;;;;;;;9.50;99.90;;;;;;5047913;28;19945;-36
2023/12/17 10:15:28;;;;;;;;;;;9.50;99.90;;;;;;5052475;28;19950;-36
2023/12/17 10:17:54;;;;;;;;;;;9.50;99.90;;;;;;5051619;28;19939;-36
2023/12/17 10:20:21;;;;;;;;;;;9.50;99.90;;;;;;5052316;28;20643;-36
2023/12/17 10:22:58;;;;;;;;;;;9.50;99.90;;;;;;5051903;28;20353;-35
2023/12/17 10:25:26;;;;;;;;;;;9.50;99.90;;;;;;5052804;28;21600;-35
2023/12/17 10:27:52;;;;;;;;;;;9.40;99.90;;;;;;5038275;28;19994;-37
2023/12/17 10:30:22;;;;;;;;;;;9.50;99.90;;;;;;5059443;28;20305;-36
2023/12/17 10:32:48;;;;;;;;;;;9.50;99.90;;;;;;5051714;28;20001;-36
2023/12/17 10:35:16;;;;;;;;;;;9.50;99.90;;;;;;5052774;28;20351;-35
2023/12/17 10:37:43;;;;;;;;;;;9.50;99.90;;;;;;5051181;28;19941;-35
2023/12/17 10:40:11;;;;;;;;;;;9.50;99.90;;;;;;5040446;28;19948;-35
2023/12/17 10:42:39;;;;;;;;;;;9.50;99.90;;;;;;5045890;28;19968;-36
2023/12/17 10:45:07;;;;;;;;;;;9.50;99.90;;;;;;5048142;28;20000;-37
2023/12/17 10:47:34;;;;;;;;;;;9.50;99.90;;;;;;5047389;28;19939;-34
2023/12/17 10:50:00;;;;;;;;;;;9.60;99.90;;;;;;5053592;28;19991;-36
2023/12/17 10:52:27;;;;;;;;;;;9.60;99.90;;;;;;5047934;28;20037;-35
2023/12/17 10:54:54;;;;;;;;;;;9.60;99.90;;;;;;5049554;28;19941;-35
2023/12/17 10:57:22;;;;;;;;;;;9.60;99.90;;;;;;5069214;28;20477;-37
2023/12/17 10:59:50;;;;;;;;;;;9.60;99.90;;;;;;5053212;28;20054;-36
2023/12/17 11:02:16;;;;;;;;;;;9.60;99.90;;;;;;5056426;28;19937;-35
2023/12/17 11:04:45;;;;;;;;;;;9.60;99.90;;;;;;5040019;28;19969;-36
2023/12/17 11:07:17;;;;;;;;;;;9.60;99.90;;;;;;5043932;28;20432;-38
2023/12/17 11:09:44;;;;;;;;;;;9.60;99.90;;;;;;5050219;28;19937;-37
2023/12/17 11:12:11;;;;;;;;;;;9.60;99.90;;;;;;5047217;28;20045;-37
2023/12/17 11:14:38;;;;;;;;;;;9.60;99.90;;;;;;5048007;28;19998;-36
2023/12/17 11:17:10;;;;;;;;;;;9.60;99.90;;;;;;5054654;28;19944;-36
2023/12/17 11:19:36;;;;;;;;;;;9.60;99.90;;;;;;5061876;28;19987;-35
2023/12/17 11:22:03;;;;;;;;;;;9.60;99.90;;;;;;5048038;28;19941;-35
2023/12/17 11:24:31;;;;;;;;;;;9.60;99.90;;;;;;5038994;28;20442;-35
2023/12/17 11:26:58;;;;;;;;;;;9.60;99.90;;;;;;5039516;28;19991;-35
2023/12/17 11:29:34;;;;;;;;;;;9.60;99.90;;;;;;5047654;28;19987;-35
2023/12/17 11:32:01;;;;;;;;;;;9.60;99.90;;;;;;5044578;28;19966;-35
2023/12/17 11:34:29;;;;;;;;;;;9.60;99.90;;;;;;5045652;28;19937;-35
2023/12/17 11:36:55;;;;;;;;;;;9.60;99.90;;;;;;5042267;28;20042;-36
2023/12/17 11:39:22;;;;;;;;;;;9.60;99.90;;;;;;5044847;28;19943;-37
2023/12/17 11:41:52;;;;;;;;;;;9.60;99.90;;;;;;5044046;28;19945;-35
2023/12/17 11:44:19;;;;;;;;;;;9.60;99.90;;;;;;5055642;28;20284;-35
2023/12/17 11:46:46;;;;;;;;;;;9.60;99.90;;;;;;5043435;28;19941;-36
2023/12/17 11:49:13;;;;;;;;;;;9.60;99.90;;;;;;5048321;28;20051;-35
2023/12/17 11:51:41;;;;;;;;;;;9.60;99.90;;;;;;5062570;28;19975;-35
2023/12/17 11:54:08;;;;;;;;;;;9.60;99.90;;;;;;5043976;28;19949;-35
2023/12/17 11:56:35;;;;;;;;;;;9.60;99.90;;;;;;5045945;28;20013;-35
2023/12/17 11:59:01;;;;;;;;;;;9.60;99.90;;;;;;5047583;28;19945;-37
2023/12/17 12:01:28;;;;;;;;;;;9.60;99.90;;;;;;5045926;28;19942;-35
2023/12/17 12:03:56;;;;;;;;;;;9.60;99.90;;;;;;5043811;28;20013;-35
2023/12/17 12:06:22;;;;;;;;;;;9.60;99.90;;;;;;5044906;28;19937;-35
2023/12/17 12:08:50;;;;;;;;;;;9.60;99.90;;;;;;5049275;28;19945;-36
2023/12/17 12:11:18;;;;;;;;;;;9.60;99.90;;;;;;5047785;28;19956;-36
2023/12/17 12:13:45;;;;;;;;;;;9.60;99.90;;;;;;5053306;28;20391;-35
2023/12/17 12:16:12;;;;;;;;;;;9.60;99.90;;;;;;5049908;28;19995;-35
2023/12/17 12:18:39;;;;;;;;;;;9.50;99.90;;;;;;5045784;28;19937;-36
2023/12/17 12:21:15;;;;;;;;;;;9.50;99.90;;;;;;5058796;28;19935;-37
2023/12/17 12:23:41;;;;;;;;;;;9.50;99.90;;;;;;5064448;28;19940;-36
2023/12/17 12:26:09;;;;;;;;;;;9.40;99.90;;;;;;5052474;28;20306;-38
2023/12/17 12:28:36;;;;;;;;;;;9.40;99.90;;;;;;5045511;28;20362;-36
2023/12/17 12:31:08;;;;;;;;;;;9.40;99.90;;;;;;5051659;28;19985;-35
2023/12/17 12:33:35;;;;;;;;;;;9.40;99.90;;;;;;5043751;28;20366;-35
2023/12/17 12:36:04;;;;;;;;;;;9.40;99.90;;;;;;5044529;28;19945;-35
2023/12/17 12:38:31;;;;;;;;;;;9.50;99.90;;;;;;5050620;28;19998;-36
2023/12/17 12:40:58;;;;;;;;;;;9.40;99.90;;;;;;5051814;28;19941;-36
2023/12/17 12:43:27;;;;;;;;;;;9.40;99.90;;;;;;5054197;28;19947;-36
2023/12/17 12:45:53;;;;;;;;;;;9.50;99.90;;;;;;5054822;28;19941;-36
2023/12/17 12:48:20;;;;;;;;;;;9.40;99.90;;;;;;5050905;28;19997;-36
2023/12/17 12:50:47;;;;;;;;;;;9.50;99.90;;;;;;5053282;28;19947;-36
2023/12/17 12:53:16;;;;;;;;;;;9.40;99.90;;;;;;5051428;28;19941;-36
2023/12/17 12:55:42;;;;;;;;;;;9.50;99.90;;;;;;4945424;22;20018;-37
2023/12/17 12:58:09;;;;;;;;;;;9.50;99.90;;;;;;5053488;28;19945;-34
2023/12/17 13:00:37;;;;;;;;;;;9.60;99.90;;;;;;5053551;28;19953;-37
2023/12/17 13:03:04;;;;;;;;;;;9.50;99.90;;;;;;5053569;28;19943;-36
2023/12/17 13:05:30;;;;;;;;;;;9.60;99.90;;;;;;5053728;28;19941;-36
2023/12/17 13:07:57;;;;;;;;;;;9.60;99.90;;;;;;5054541;28;19943;-35
2023/12/17 13:10:24;;;;;;;;;;;9.60;99.90;;;;;;5050963;28;20375;-36
2023/12/17 13:12:50;;;;;;;;;;;9.60;99.90;;;;;;5054008;28;19960;-37
2023/12/17 13:15:17;;;;;;;;;;;9.60;99.90;;;;;;5051091;28;20000;-36
2023/12/17 13:17:45;;;;;;;;;;;9.60;99.90;;;;;;5051924;28;20381;-35
2023/12/17 13:20:12;;;;;;;;;;;9.60;99.90;;;;;;5051356;28;20441;-35
2023/12/17 13:22:39;;;;;;;;;;;9.60;99.90;;;;;;5053089;28;19991;-37
2023/12/17 13:25:06;;;;;;;;;;;9.60;99.90;;;;;;5051476;28;20287;-35
2023/12/17 13:27:33;;;;;;;;;;;9.60;99.90;;;;;;5051786;28;19989;-36
2023/12/17 13:29:59;;;;;;;;;;;9.60;99.90;;;;;;5052151;28;19943;-34
2023/12/17 13:32:26;;;;;;;;;;;9.70;99.90;;;;;;5050477;28;20442;-35
2023/12/17 13:34:54;;;;;;;;;;;9.60;99.90;;;;;;5052263;28;19995;-35
2023/12/17 13:37:20;;;;;;;;;;;9.60;99.90;;;;;;5050928;28;19963;-36
2023/12/17 13:39:47;;;;;;;;;;;9.70;99.90;;;;;;5047669;28;19974;-35
2023/12/17 13:42:14;;;;;;;;;;;9.70;99.90;;;;;;5046784;28;19995;-36
2023/12/17 13:44:40;;;;;;;;;;;9.70;99.90;;;;;;5053393;28;20453;-35
2023/12/17 13:47:07;;;;;;;;;;;9.70;99.90;;;;;;5050969;28;20355;-36
2023/12/17 13:49:35;;;;;;;;;;;9.70;99.90;;;;;;5042032;28;20384;-34
2023/12/17 13:52:03;;;;;;;;;;;9.70;99.90;;;;;;5049879;28;20011;-35
2023/12/17 13:54:30;;;;;;;;;;;9.60;99.90;;;;;;5050154;28;19938;-35
2023/12/17 13:56:57;;;;;;;;;;;9.60;99.90;;;;;;5051193;28;20412;-35
2023/12/17 13:59:23;;;;;;;;;;;9.60;99.90;;;;;;5053032;28;19944;-37
2023/12/17 14:01:50;;;;;;;;;;;9.60;99.90;;;;;;5051694;28;20458;-35
2023/12/17 14:04:17;;;;;;;;;;;9.60;99.90;;;;;;5033159;28;19929;-36
2023/12/17 14:06:43;;;;;;;;;;;9.50;99.90;;;;;;5044851;28;19991;-35
2023/12/17 14:09:11;;;;;;;;;;;9.50;99.90;;;;;;5048002;28;19945;-34
2023/12/17 14:11:39;;;;;;;;;;;9.50;99.90;;;;;;5050259;28;20042;-36
2023/12/17 14:14:13;;;;;;;;;;;9.50;99.90;;;;;;5051050;22;19966;-34
2023/12/17 14:16:42;;;;;;;;;;;9.50;99.90;;;;;;5075890;28;20260;-34
2023/12/17 14:19:08;;;;;;;;;;;9.40;99.90;;;;;;5073056;28;20308;-36
2023/12/17 14:21:36;;;;;;;;;;;9.40;99.90;;;;;;5077598;28;19975;-34
2023/12/17 14:24:03;;;;;;;;;;;9.30;99.90;;;;;;5071470;28;19949;-35
2023/12/17 14:26:31;;;;;;;;;;;9.30;99.90;;;;;;5071310;28;19942;-37
2023/12/17 14:28:57;;;;;;;;;;;9.30;99.90;;;;;;5072119;28;20013;-35